📊 Raw Sensor Data
Showing records 40201 to 40225 of 84,959 total
| ID | Distance (ft) | Battery V | Battery A | Int Temp (°F) | Int Humid (%) | Ext Temp (°F) | Solar V | RSSI | SNR | Time Stamp |
|---|---|---|---|---|---|---|---|---|---|---|
| 44771 | 15.7 | 3.96 | 0 | 87 | 43 | 90 | 5.10 | -68 | 7 | 06/28/2025 10:30 AM |
| 44770 | 15.6 | 3.94 | 0 | 83 | 43 | 84 | 5.10 | -69 | 8 | 06/28/2025 10:00 AM |
| 44769 | 15.6 | 3.94 | 0 | 81 | 43 | 79 | 5.10 | -70 | 8 | 06/28/2025 09:45 AM |
| 44768 | 15.6 | 3.94 | 0 | 79 | 44 | 77 | 5.10 | -69 | 8 | 06/28/2025 09:15 AM |
| 44767 | 15.7 | 3.94 | 0 | 78 | 44 | 81 | 5.10 | -69 | 8 | 06/28/2025 09:00 AM |
| 44766 | 15.7 | 3.94 | 0 | 77 | 43 | 78 | 5.10 | -69 | 7 | 06/28/2025 08:45 AM |
| 44765 | 15.7 | 4.11 | 0 | 75 | 44 | 77 | 5.10 | -68 | 8 | 06/28/2025 08:30 AM |
| 44764 | 15.6 | 3.94 | 0 | 73 | 44 | 73 | 5.10 | -68 | 8 | 06/28/2025 08:15 AM |
| 44763 | 15.6 | 3.94 | 0 | 72 | 43 | 71 | 5.10 | -69 | 8 | 06/28/2025 08:00 AM |
| 44762 | 15.7 | 3.94 | 0 | 71 | 43 | 73 | 5.10 | -68 | 7 | 06/28/2025 07:45 AM |
| 44761 | 15.6 | 3.94 | 0 | 69 | 43 | 75 | 5.10 | -68 | 8 | 06/28/2025 07:30 AM |
| 44760 | 15.6 | 3.93 | 15 | 67 | 42 | 74 | 4.50 | -68 | 8 | 06/28/2025 07:15 AM |
| 44759 | 15.6 | 3.98 | 8 | 65 | 42 | 73 | 4.50 | -69 | 8 | 06/28/2025 07:00 AM |
| 44758 | 15.5 | 3.96 | 0 | 63 | 42 | 71 | 4.50 | -69 | 8 | 06/28/2025 06:45 AM |
| 44757 | 15.5 | 3.95 | 0 | 61 | 43 | 69 | 4.50 | -68 | 8 | 06/28/2025 06:30 AM |
| 44756 | 15.4 | 3.84 | -32 | 58 | 43 | 64 | 4.50 | -68 | 8 | 06/28/2025 06:15 AM |
| 44755 | 15.4 | 3.80 | -8 | 57 | 44 | 59 | 4.50 | -68 | 8 | 06/28/2025 06:00 AM |
| 44754 | 15.4 | 3.82 | -10 | 57 | 44 | 58 | 4.00 | -69 | 8 | 06/28/2025 05:45 AM |
| 44753 | 15.4 | 3.82 | -5 | 57 | 44 | 60 | 0.60 | -68 | 8 | 06/28/2025 05:30 AM |
| 44752 | 15.4 | 3.82 | -5 | 58 | 44 | 59 | 0.10 | -67 | 8 | 06/28/2025 05:15 AM |
| 44751 | 15.4 | 3.82 | -5 | 58 | 44 | 59 | 0.00 | -67 | 9 | 06/28/2025 05:00 AM |
| 44750 | 15.4 | 3.82 | -5 | 59 | 44 | 60 | 0.00 | -68 | 8 | 06/28/2025 04:45 AM |
| 44749 | 15.4 | 3.93 | -5 | 59 | 44 | 61 | 0.00 | -69 | 8 | 06/28/2025 04:30 AM |
| 44748 | 15.4 | 3.93 | -5 | 60 | 43 | 62 | 0.00 | -68 | 8 | 06/28/2025 04:15 AM |
| 44747 | 15.4 | 3.94 | -5 | 61 | 43 | 63 | 0.00 | -69 | 8 | 06/28/2025 04:00 AM |